createdAt,value
2023-04-08T00:02:56.592Z,46.88
2023-04-08T00:07:58.769Z,52.65
2023-04-08T00:13:01.107Z,41.88
2023-04-08T00:18:03.592Z,45.40
2023-04-08T00:23:05.857Z,57.38
2023-04-08T00:28:07.931Z,43.15
2023-04-08T00:33:10.185Z,48.42
2023-04-08T00:38:14.039Z,49.63
2023-04-08T00:43:16.695Z,54.55
2023-04-08T00:48:18.864Z,48.65
2023-04-08T00:53:21.115Z,55.00
2023-04-08T00:58:23.329Z,46.10
2023-04-08T01:03:44.320Z,41.75
2023-04-08T01:08:49.797Z,50.92
2023-04-08T01:13:56.213Z,53.17
2023-04-08T01:18:58.563Z,52.50
2023-04-08T01:24:09.366Z,55.72
2023-04-08T01:29:12.808Z,48.92
2023-04-08T01:34:17.010Z,56.90
2023-04-08T01:39:21.606Z,49.97
2023-04-08T01:44:24.296Z,58.67
2023-04-08T01:49:27.138Z,60.20
2023-04-08T01:54:29.991Z,50.28
2023-04-08T01:59:35.754Z,49.92
2023-04-08T02:04:38.379Z,51.33
2023-04-08T02:09:40.696Z,49.72
2023-04-08T02:14:43.199Z,49.53
2023-04-08T02:20:07.722Z,44.95
2023-04-08T02:25:14.862Z,59.60
2023-04-08T02:30:17.975Z,57.97
2023-04-08T02:35:20.659Z,50.70
2023-04-08T02:40:28.132Z,48.83
2023-04-08T02:45:33.911Z,50.15
2023-04-08T02:50:36.463Z,58.47
2023-04-08T02:55:39.501Z,49.80
2023-04-08T03:00:41.827Z,48.90
2023-04-08T03:05:43.901Z,58.50
2023-04-08T03:10:46.019Z,53.30
2023-04-08T03:15:48.126Z,55.63
2023-04-08T03:20:50.195Z,59.63
2023-04-08T03:25:52.197Z,50.70
2023-04-08T03:30:54.342Z,63.58
2023-04-08T03:35:56.491Z,54.47
2023-04-08T03:40:58.742Z,54.55
2023-04-08T03:46:00.829Z,57.53
2023-04-08T03:51:03.130Z,54.10
2023-04-08T03:56:06.007Z,60.60
2023-04-08T04:01:08.034Z,53.83
2023-04-08T04:06:10.719Z,62.47
2023-04-08T04:11:12.802Z,61.20
2023-04-08T04:16:15.011Z,56.20
2023-04-08T04:21:17.082Z,56.65
2023-04-08T04:26:19.172Z,53.97
2023-04-08T04:31:22.758Z,59.67
2023-04-08T04:36:25.023Z,61.00
2023-04-08T04:41:27.356Z,68.25
2023-04-08T04:46:29.424Z,64.40
2023-04-08T04:51:33.058Z,68.03
2023-04-08T04:56:35.390Z,70.82
2023-04-08T05:01:37.672Z,66.53
2023-04-08T05:06:39.943Z,70.53
2023-04-08T05:11:42.018Z,73.80
2023-04-08T05:16:44.089Z,66.25
2023-04-08T05:21:46.353Z,63.00
2023-04-08T05:26:52.258Z,67.45
2023-04-08T05:31:54.596Z,60.90
2023-04-08T05:36:56.849Z,66.45
2023-04-08T05:41:59.120Z,55.22
2023-04-08T05:47:01.234Z,56.63
2023-04-08T05:52:04.559Z,52.95
2023-04-08T05:57:08.134Z,59.22
2023-04-08T06:02:12.012Z,57.08
2023-04-08T06:07:14.119Z,56.25
2023-04-08T06:12:16.201Z,56.50
2023-04-08T06:17:18.305Z,47.78
2023-04-08T06:22:20.354Z,41.20
2023-04-08T06:27:22.460Z,42.35
2023-04-08T06:32:24.666Z,44.75
2023-04-08T06:37:26.757Z,41.58
2023-04-08T06:42:28.994Z,36.70
2023-04-08T06:47:49.533Z,45.13
2023-04-08T06:52:51.744Z,41.42
2023-04-08T06:57:53.788Z,45.00
2023-04-08T07:02:55.975Z,49.25
2023-04-08T07:07:58.146Z,42.90
2023-04-08T07:13:00.377Z,41.78
2023-04-08T07:18:02.909Z,34.50
2023-04-08T07:23:05.458Z,36.15
2023-04-08T07:28:07.482Z,36.58
2023-04-08T07:33:09.520Z,35.22
2023-04-08T07:38:13.362Z,40.00
2023-04-08T07:43:15.371Z,36.55
2023-04-08T07:48:17.455Z,38.33
2023-04-08T07:53:19.943Z,34.72
2023-04-08T07:58:22.564Z,34.53
2023-04-08T08:03:25.443Z,36.50
2023-04-08T08:08:27.582Z,32.08
2023-04-08T08:13:29.806Z,38.85
2023-04-08T08:18:31.864Z,35.60
2023-04-08T08:23:34.105Z,37.67
2023-04-08T08:28:36.522Z,35.65
2023-04-08T08:33:38.739Z,33.80
2023-04-08T08:38:40.942Z,40.97
2023-04-08T08:43:45.040Z,42.00
2023-04-08T08:48:47.363Z,44.40
2023-04-08T08:53:49.422Z,45.50
2023-04-08T08:58:51.569Z,43.72
2023-04-08T09:04:16.488Z,37.35
2023-04-08T09:09:18.928Z,41.35
2023-04-08T09:14:25.509Z,49.92
2023-04-08T09:19:27.961Z,65.40
2023-04-08T09:24:31.219Z,62.10
2023-04-08T09:29:35.942Z,42.83
2023-04-08T09:34:41.069Z,32.60
2023-04-08T09:39:43.292Z,35.13
2023-04-08T09:44:47.234Z,57.25
2023-04-08T09:49:58.311Z,45.03
2023-04-08T09:55:05.019Z,40.97
2023-04-08T10:00:09.822Z,33.90
2023-04-08T10:05:18.444Z,40.95
2023-04-08T10:10:21.108Z,35.90
2023-04-08T10:15:40.838Z,30.23
2023-04-08T10:20:43.961Z,31.00
2023-04-08T10:25:49.246Z,32.70
2023-04-08T10:31:00.516Z,31.60
2023-04-08T10:36:12.603Z,27.88
2023-04-08T10:41:24.362Z,33.35
2023-04-08T10:46:28.101Z,27.27
2023-04-08T10:51:34.180Z,26.80
2023-04-08T10:56:50.637Z,25.27
2023-04-08T11:01:52.976Z,23.15
2023-04-08T11:06:55.326Z,24.38
2023-04-08T11:11:57.459Z,22.52
2023-04-08T11:17:01.475Z,22.15
2023-04-08T11:22:05.240Z,19.23
2023-04-08T11:27:07.845Z,22.15
2023-04-08T11:32:10.159Z,20.17
2023-04-08T11:37:12.578Z,21.42
2023-04-08T11:42:30.839Z,17.48
2023-04-08T11:47:36.659Z,18.42
2023-04-08T11:52:44.852Z,19.65
2023-04-08T11:57:46.875Z,17.98
2023-04-08T12:02:49.474Z,18.23
2023-04-08T12:07:51.813Z,17.38
2023-04-08T12:12:53.910Z,20.15
2023-04-08T12:17:56.032Z,16.98
2023-04-08T12:22:58.293Z,18.27
2023-04-08T12:28:00.741Z,16.20
2023-04-08T12:33:02.914Z,15.85
2023-04-08T12:38:05.029Z,18.25
2023-04-08T12:43:07.062Z,17.60
2023-04-08T12:48:09.295Z,16.98
2023-04-08T12:53:11.371Z,17.30
2023-04-08T12:58:13.587Z,16.10
2023-04-08T13:03:17.837Z,17.45
2023-04-08T13:08:19.900Z,17.85
2023-04-08T13:13:22.025Z,13.63
2023-04-08T13:18:24.104Z,15.40
2023-04-08T13:23:26.454Z,10.95
2023-04-08T13:28:28.574Z,12.38
2023-04-08T13:33:30.713Z,12.15
2023-04-08T13:38:32.840Z,12.02
2023-04-08T13:43:34.864Z,11.35
2023-04-08T13:48:36.889Z,10.82
2023-04-08T13:53:38.843Z,12.40
2023-04-08T13:58:41.342Z,10.45
2023-04-08T14:03:43.737Z,13.93
2023-04-08T14:08:45.889Z,11.48
2023-04-08T14:13:48.077Z,13.32
2023-04-08T14:18:50.589Z,10.90
2023-04-08T14:23:53.270Z,11.07
2023-04-08T14:28:55.449Z,12.85
2023-04-08T14:33:58.075Z,11.68
2023-04-08T14:39:00.166Z,11.68
2023-04-08T14:44:02.245Z,12.77
2023-04-08T14:49:04.246Z,12.60
2023-04-08T14:54:06.623Z,12.75
2023-04-08T14:59:08.677Z,14.07
2023-04-08T15:04:10.855Z,13.45
2023-04-08T15:09:12.940Z,13.80
2023-04-08T15:14:14.939Z,14.88
2023-04-08T15:19:19.766Z,15.07
2023-04-08T15:24:21.814Z,13.23
2023-04-08T15:29:24.517Z,12.13
2023-04-08T15:34:27.133Z,11.32
2023-04-08T15:39:29.308Z,13.05
2023-04-08T15:44:32.503Z,11.18
2023-04-08T15:49:34.588Z,13.20
2023-04-08T15:54:36.952Z,13.02
2023-04-08T15:59:39.309Z,12.02
2023-04-08T16:04:41.429Z,12.55
2023-04-08T16:09:43.880Z,12.07
2023-04-08T16:14:47.122Z,12.48
2023-04-08T16:19:51.491Z,13.07
2023-04-08T16:24:53.784Z,14.25
2023-04-08T16:29:57.601Z,13.05
2023-04-08T16:34:59.783Z,13.55
2023-04-08T16:40:03.149Z,14.80
2023-04-08T16:45:05.812Z,15.55
2023-04-08T16:50:08.606Z,17.90
2023-04-08T16:55:11.598Z,18.27
2023-04-08T17:00:16.878Z,14.60
2023-04-08T17:05:21.821Z,14.98
2023-04-08T17:10:23.950Z,15.38
2023-04-08T17:15:27.144Z,15.32
2023-04-08T17:20:29.255Z,15.32
2023-04-08T17:25:31.390Z,16.27
2023-04-08T17:30:33.458Z,14.70
2023-04-08T17:35:36.080Z,16.80
2023-04-08T17:40:38.769Z,16.33
2023-04-08T17:45:40.918Z,13.73
2023-04-08T17:50:43.024Z,12.20
2023-04-08T17:55:45.253Z,16.73
2023-04-08T18:00:48.723Z,14.68
2023-04-08T18:05:50.951Z,16.90
2023-04-08T18:10:53.066Z,14.32
2023-04-08T18:15:55.155Z,16.92
2023-04-08T18:20:57.197Z,16.08
2023-04-08T18:25:59.193Z,13.65
2023-04-08T18:31:01.362Z,13.35
2023-04-08T18:36:08.169Z,13.57
2023-04-08T18:41:11.492Z,15.93
2023-04-08T18:46:13.768Z,14.70
2023-04-08T18:51:18.988Z,14.07
2023-04-08T18:56:23.925Z,16.42
2023-04-08T19:01:28.628Z,14.77
2023-04-08T19:06:33.650Z,15.68
2023-04-08T19:11:35.772Z,15.30
2023-04-08T19:16:40.802Z,17.77
2023-04-08T19:21:43.825Z,17.52
2023-04-08T19:26:46.560Z,18.20
2023-04-08T19:31:48.876Z,20.02
2023-04-08T19:36:50.959Z,18.20
2023-04-08T19:41:52.983Z,16.85
2023-04-08T19:46:57.667Z,17.27
2023-04-08T19:52:01.188Z,20.02
2023-04-08T19:57:03.364Z,17.75
2023-04-08T20:02:05.626Z,22.23
2023-04-08T20:07:08.456Z,21.13
2023-04-08T20:12:10.739Z,21.98
2023-04-08T20:17:12.909Z,21.63
2023-04-08T20:22:15.055Z,22.40
2023-04-08T20:27:18.757Z,21.55
2023-04-08T20:32:20.946Z,23.08
2023-04-08T20:37:23.431Z,23.92
2023-04-08T20:42:25.656Z,20.63
2023-04-08T20:47:28.656Z,21.20
2023-04-08T20:52:30.908Z,21.52
2023-04-08T20:57:33.005Z,27.80
2023-04-08T21:02:35.202Z,22.65
2023-04-08T21:07:38.516Z,28.42
2023-04-08T21:12:40.628Z,26.15
2023-04-08T21:17:42.768Z,22.80
2023-04-08T21:22:44.989Z,26.58
2023-04-08T21:27:47.036Z,22.42
2023-04-08T21:32:49.090Z,22.75
2023-04-08T21:37:51.420Z,24.63
2023-04-08T21:42:53.545Z,27.13
2023-04-08T21:47:56.581Z,24.38
2023-04-08T21:52:59.949Z,24.08
2023-04-08T21:58:06.039Z,25.85
2023-04-08T22:03:10.427Z,25.83
2023-04-08T22:08:12.867Z,26.75
2023-04-08T22:13:17.399Z,25.50
2023-04-08T22:18:19.498Z,24.17
2023-04-08T22:23:21.747Z,27.23
2023-04-08T22:28:23.933Z,22.27
2023-04-08T22:33:27.861Z,24.20
2023-04-08T22:38:32.023Z,24.38
2023-04-08T22:43:36.648Z,24.80
2023-04-08T22:48:44.075Z,27.35
2023-04-08T22:53:48.625Z,26.65
2023-04-08T22:58:51.119Z,27.90
2023-04-08T23:03:53.460Z,28.52
2023-04-08T23:08:55.994Z,24.00
2023-04-08T23:13:58.109Z,28.30
2023-04-08T23:19:00.346Z,26.73
2023-04-08T23:24:02.732Z,27.52
2023-04-08T23:29:04.883Z,25.23
2023-04-08T23:34:06.958Z,26.48
2023-04-08T23:39:08.989Z,24.73
2023-04-08T23:44:11.107Z,25.63
2023-04-08T23:49:13.174Z,25.63
2023-04-08T23:54:15.642Z,25.30
2023-04-08T23:59:17.768Z,24.58
